createdAt,value
2018-07-15T00:02:57.356Z,53.90
2018-07-15T00:08:00.440Z,54.10
2018-07-15T00:13:03.556Z,54.20
2018-07-15T00:18:06.888Z,54.10
2018-07-15T00:23:10.055Z,54.00
2018-07-15T00:28:13.143Z,54.00
2018-07-15T00:33:16.250Z,53.90
2018-07-15T00:38:19.352Z,53.90
2018-07-15T00:43:22.496Z,54.20
2018-07-15T00:48:25.615Z,54.30
2018-07-15T00:53:28.747Z,54.30
2018-07-15T00:58:31.884Z,54.20
2018-07-15T01:03:35.263Z,54.30
2018-07-15T01:08:38.443Z,54.40
2018-07-15T01:13:41.561Z,54.50
2018-07-15T01:18:44.654Z,54.50
2018-07-15T01:23:47.740Z,54.50
2018-07-15T01:28:51.094Z,54.70
2018-07-15T01:33:54.519Z,54.80
2018-07-15T01:38:57.614Z,54.80
2018-07-15T01:44:00.723Z,55.00
2018-07-15T01:49:03.836Z,55.00
2018-07-15T01:54:06.940Z,55.10
2018-07-15T01:59:10.044Z,55.10
2018-07-15T02:04:13.152Z,55.80
2018-07-15T02:09:16.246Z,55.20
2018-07-15T02:14:19.342Z,55.20
2018-07-15T02:19:22.428Z,55.40
2018-07-15T02:24:25.512Z,55.30
2018-07-15T02:29:28.570Z,55.70
2018-07-15T02:34:31.679Z,55.60
2018-07-15T02:39:34.757Z,55.80
2018-07-15T02:44:37.851Z,55.70
2018-07-15T02:49:40.955Z,55.60
2018-07-15T02:54:44.055Z,55.70
2018-07-15T02:59:47.209Z,55.90
2018-07-15T03:04:50.322Z,55.80
2018-07-15T03:09:53.422Z,55.90
2018-07-15T03:14:56.746Z,56.00
2018-07-15T03:19:59.844Z,56.00
2018-07-15T03:25:02.960Z,55.80
2018-07-15T03:30:06.331Z,56.20
2018-07-15T03:35:09.420Z,56.10
2018-07-15T03:50:18.326Z,56.60
2018-07-15T03:55:21.412Z,56.50
2018-07-15T04:00:24.504Z,56.60
2018-07-15T04:05:27.584Z,56.80
2018-07-15T04:10:30.656Z,56.90
2018-07-15T04:15:33.768Z,57.10
2018-07-15T04:20:37.464Z,57.30
2018-07-15T04:25:40.538Z,57.40
2018-07-15T04:30:43.628Z,57.60
2018-07-15T04:35:46.715Z,57.60
2018-07-15T04:40:49.799Z,57.90
2018-07-15T04:45:52.916Z,58.20
2018-07-15T04:55:58.936Z,58.60
2018-07-15T05:01:02.038Z,58.70
2018-07-15T05:06:05.136Z,58.90
2018-07-15T05:11:08.270Z,59.20
2018-07-15T05:16:11.348Z,59.80
2018-07-15T05:21:14.483Z,59.60
2018-07-15T05:26:17.575Z,60.00
2018-07-15T05:31:20.681Z,64.60
2018-07-15T05:36:23.787Z,63.90
2018-07-15T05:41:26.903Z,64.00
2018-07-15T05:46:29.995Z,62.20
2018-07-15T05:51:33.120Z,63.10
2018-07-15T05:56:36.185Z,61.20
2018-07-15T06:01:39.331Z,63.50
2018-07-15T06:06:42.413Z,63.30
2018-07-15T06:11:45.522Z,63.90
2018-07-15T06:21:51.480Z,63.90
2018-07-15T06:26:54.580Z,61.60
2018-07-15T06:31:57.731Z,63.80
2018-07-15T06:37:01.103Z,61.40
2018-07-15T06:42:04.225Z,62.00
2018-07-15T06:47:07.335Z,61.70
2018-07-15T06:52:10.435Z,62.60
2018-07-15T06:57:13.536Z,60.50
2018-07-15T07:02:16.637Z,59.70
2018-07-15T07:07:19.812Z,59.90
2018-07-15T07:12:22.904Z,60.30
2018-07-15T07:22:28.914Z,59.30
2018-07-15T07:27:32.046Z,60.00
2018-07-15T07:32:35.144Z,56.80
2018-07-15T07:37:38.228Z,56.90
2018-07-15T07:42:41.355Z,57.60
2018-07-15T07:47:44.469Z,55.90
2018-07-15T07:52:47.919Z,54.60
2018-07-15T07:57:51.080Z,54.10
2018-07-15T08:02:54.164Z,53.30
2018-07-15T08:07:57.325Z,54.50
2018-07-15T08:13:00.434Z,53.40
2018-07-15T08:18:03.516Z,53.80
2018-07-15T08:23:06.648Z,52.20
2018-07-15T08:28:09.798Z,53.20
2018-07-15T08:33:12.978Z,52.00
2018-07-15T08:38:16.089Z,51.90
2018-07-15T08:43:19.660Z,51.30
2018-07-15T08:48:22.968Z,50.00
2018-07-15T08:53:26.101Z,50.50
2018-07-15T08:58:29.193Z,50.70
2018-07-15T09:03:32.312Z,50.30
2018-07-15T09:08:35.512Z,49.60
2018-07-15T09:13:38.628Z,48.50
2018-07-15T09:18:41.723Z,49.40
2018-07-15T09:23:44.809Z,49.80
2018-07-15T09:28:47.924Z,48.40
2018-07-15T09:33:51.184Z,47.20
2018-07-15T09:38:54.343Z,45.90
2018-07-15T09:43:57.991Z,45.20
2018-07-15T09:49:01.113Z,45.50
2018-07-15T09:54:04.477Z,45.50
2018-07-15T09:59:07.628Z,44.90
2018-07-15T10:04:10.732Z,44.00
2018-07-15T10:09:13.835Z,44.50
2018-07-15T10:14:17.005Z,43.80
2018-07-15T10:24:23.127Z,42.80
2018-07-15T10:29:26.253Z,42.90
2018-07-15T10:34:29.337Z,43.70
2018-07-15T10:39:32.464Z,43.00
2018-07-15T10:44:35.589Z,41.40
2018-07-15T10:49:38.680Z,41.00
2018-07-15T10:54:41.760Z,40.30
2018-07-15T11:04:47.721Z,39.80
2018-07-15T11:09:50.824Z,40.30
2018-07-15T11:14:54.013Z,39.50
2018-07-15T11:19:57.091Z,40.40
2018-07-15T11:25:00.190Z,40.50
2018-07-15T11:30:03.328Z,41.50
2018-07-15T11:35:06.872Z,40.40
2018-07-15T11:45:12.882Z,38.60
2018-07-15T11:50:16.015Z,39.60
2018-07-15T11:55:19.103Z,39.70
2018-07-15T12:00:22.228Z,40.10
2018-07-15T12:05:25.325Z,39.30
2018-07-15T12:10:28.419Z,38.50
2018-07-15T12:15:31.529Z,39.10
2018-07-15T12:20:35.332Z,38.00
2018-07-15T12:25:38.331Z,37.90
2018-07-15T12:30:41.408Z,38.00
2018-07-15T12:35:44.544Z,37.80
2018-07-15T12:40:47.645Z,36.50
2018-07-15T12:45:50.732Z,37.30
2018-07-15T12:50:53.868Z,36.40
2018-07-15T12:55:57.029Z,37.20
2018-07-15T13:06:03.055Z,37.00
2018-07-15T13:11:06.429Z,36.40
2018-07-15T13:16:09.554Z,36.40
2018-07-15T13:21:12.655Z,36.50
2018-07-15T13:26:15.744Z,36.10
2018-07-15T13:31:18.878Z,37.00
2018-07-15T13:36:21.986Z,35.30
2018-07-15T13:46:27.995Z,36.00
2018-07-15T13:56:34.028Z,36.30
2018-07-15T14:01:37.123Z,35.70
2018-07-15T14:06:40.233Z,35.20
2018-07-15T14:11:43.344Z,35.30
2018-07-15T14:16:46.465Z,35.50
2018-07-15T14:21:49.575Z,34.90
2018-07-15T14:26:52.708Z,34.80
2018-07-15T14:31:55.819Z,34.40
2018-07-15T14:36:58.946Z,35.00
2018-07-15T14:42:02.059Z,34.60
2018-07-15T14:47:05.681Z,35.10
2018-07-15T14:52:08.797Z,34.60
2018-07-15T15:02:14.804Z,35.30
2018-07-15T15:07:17.916Z,35.70
2018-07-15T15:12:21.062Z,36.00
2018-07-15T15:17:24.200Z,35.40
2018-07-15T15:22:27.341Z,35.80
2018-07-15T15:27:30.438Z,36.00
2018-07-15T15:32:33.592Z,36.70
2018-07-15T15:37:36.751Z,35.70
2018-07-15T15:42:39.852Z,36.50
2018-07-15T15:47:43.004Z,36.50
2018-07-15T15:52:46.224Z,36.50
2018-07-15T15:57:49.308Z,36.60
2018-07-15T16:02:52.427Z,36.80
2018-07-15T16:07:55.545Z,36.80
2018-07-15T16:12:58.626Z,37.20
2018-07-15T16:18:01.714Z,37.50
2018-07-15T16:23:04.933Z,37.70
2018-07-15T16:28:08.024Z,38.30
2018-07-15T16:33:11.120Z,38.20
2018-07-15T16:38:14.215Z,38.10
2018-07-15T16:43:17.311Z,38.30
2018-07-15T16:48:20.394Z,38.30
2018-07-15T16:53:23.502Z,38.20
2018-07-15T16:58:26.631Z,38.20
2018-07-15T17:03:29.732Z,38.70
2018-07-15T17:08:32.843Z,38.90
2018-07-15T17:13:35.920Z,38.80
2018-07-15T17:18:39.122Z,39.00
2018-07-15T17:23:42.295Z,39.30
2018-07-15T17:28:45.460Z,39.40
2018-07-15T17:33:48.696Z,39.60
2018-07-15T17:38:51.795Z,39.60
2018-07-15T17:43:54.900Z,39.60
2018-07-15T17:48:57.983Z,40.30
2018-07-15T17:54:01.075Z,40.20
2018-07-15T17:59:04.184Z,40.90
2018-07-15T18:04:07.301Z,41.00
2018-07-15T18:09:10.519Z,40.50
2018-07-15T18:14:13.602Z,40.90
2018-07-15T18:19:16.719Z,41.20
2018-07-15T18:24:19.831Z,42.00
2018-07-15T18:29:22.944Z,42.20
2018-07-15T18:34:26.038Z,42.20
2018-07-15T18:39:29.144Z,42.20
2018-07-15T18:44:32.263Z,42.50
2018-07-15T18:49:35.373Z,42.90
2018-07-15T18:54:38.475Z,43.30
2018-07-15T18:59:41.614Z,43.10
2018-07-15T19:04:44.696Z,43.70
2018-07-15T19:09:47.804Z,43.80
2018-07-15T19:14:50.891Z,44.10
2018-07-15T19:19:54.093Z,44.30
2018-07-15T19:24:57.328Z,44.50
2018-07-15T19:30:00.406Z,44.50
2018-07-15T19:35:03.519Z,44.80
2018-07-15T19:40:06.808Z,45.10
2018-07-15T19:45:09.920Z,45.00
2018-07-15T19:50:13.036Z,45.40
2018-07-15T19:55:16.127Z,45.60
2018-07-15T20:00:19.251Z,45.70
2018-07-15T20:05:22.353Z,45.90
2018-07-15T20:10:25.445Z,46.00
2018-07-15T20:15:28.558Z,46.00
2018-07-15T20:20:31.635Z,46.30
2018-07-15T20:25:34.736Z,46.40
2018-07-15T20:30:37.831Z,46.40
2018-07-15T20:40:43.984Z,46.80
2018-07-15T20:45:47.091Z,46.90
2018-07-15T20:55:53.934Z,47.30
2018-07-15T21:00:57.167Z,47.40
2018-07-15T21:06:00.319Z,47.60
2018-07-15T21:11:03.423Z,47.80
2018-07-15T21:16:06.551Z,47.90
2018-07-15T21:26:12.533Z,48.20
2018-07-15T21:31:15.656Z,48.40
2018-07-15T21:36:18.756Z,48.60
2018-07-15T21:41:22.331Z,48.90
2018-07-15T21:46:25.527Z,48.90
2018-07-15T21:51:28.642Z,48.90
2018-07-15T21:56:31.739Z,48.90
2018-07-15T22:01:39.532Z,49.20
2018-07-15T22:06:54.348Z,49.30
2018-07-15T22:11:59.729Z,49.30
2018-07-15T22:17:02.865Z,49.70
2018-07-15T22:22:06.484Z,49.80
2018-07-15T22:27:09.643Z,49.50
2018-07-15T22:32:12.849Z,49.40
2018-07-15T22:37:16.012Z,49.40
2018-07-15T22:42:19.132Z,49.60
2018-07-15T22:47:22.232Z,50.20
2018-07-15T22:52:25.339Z,49.90
2018-07-15T22:57:28.404Z,50.00
2018-07-15T23:02:31.547Z,50.40
2018-07-15T23:07:34.631Z,50.60
2018-07-15T23:12:37.727Z,50.50
2018-07-15T23:17:40.840Z,50.80
2018-07-15T23:22:44.060Z,50.80
2018-07-15T23:27:47.196Z,51.10
2018-07-15T23:32:50.340Z,51.00
2018-07-15T23:37:53.477Z,51.10
2018-07-15T23:42:57.183Z,51.30
2018-07-15T23:48:00.267Z,51.70
2018-07-15T23:53:03.368Z,51.40
2018-07-15T23:58:06.448Z,51.50
